createdAt,value
2022-12-11T05:00:29.545Z,999.50
2022-12-11T05:01:29.517Z,999.51
2022-12-11T05:02:29.565Z,999.44
2022-12-11T05:03:29.449Z,999.45
2022-12-11T05:04:29.443Z,999.40
2022-12-11T05:05:29.429Z,999.42
2022-12-11T05:06:29.415Z,999.47
2022-12-11T05:07:29.412Z,999.40
2022-12-11T05:08:29.467Z,999.39
2022-12-11T05:09:29.381Z,999.40
2022-12-11T05:10:29.414Z,999.38
2022-12-11T05:11:34.393Z,999.39
2022-12-11T05:12:29.372Z,999.38
2022-12-11T05:13:29.339Z,999.43
2022-12-11T05:14:29.368Z,999.39
2022-12-11T05:15:29.319Z,999.39
2022-12-11T05:16:29.375Z,999.47
2022-12-11T05:17:29.310Z,999.44
2022-12-11T05:18:29.298Z,999.39
2022-12-11T05:19:29.272Z,999.35
2022-12-11T05:20:29.266Z,999.37
2022-12-11T05:21:34.781Z,999.36
2022-12-11T05:22:35.304Z,999.38
2022-12-11T05:23:29.231Z,999.33
2022-12-11T05:24:29.224Z,999.28
2022-12-11T05:25:29.207Z,999.22
2022-12-11T05:26:29.200Z,999.22
2022-12-11T05:27:29.191Z,999.22
2022-12-11T05:28:29.207Z,999.24
2022-12-11T05:29:29.168Z,999.24
2022-12-11T05:30:29.166Z,999.23
2022-12-11T05:31:29.252Z,999.19
2022-12-11T05:32:29.161Z,999.22
2022-12-11T05:33:34.164Z,999.17
2022-12-11T05:34:29.122Z,999.21
2022-12-11T05:35:29.107Z,999.16
2022-12-11T05:36:29.089Z,999.11
2022-12-11T05:37:29.077Z,999.15
2022-12-11T05:38:29.079Z,999.13
2022-12-11T05:39:29.055Z,999.22
2022-12-11T05:40:29.046Z,999.19
2022-12-11T05:41:29.036Z,999.21
2022-12-11T05:42:29.342Z,999.21
2022-12-11T05:43:29.025Z,999.21
2022-12-11T05:44:34.039Z,999.25
2022-12-11T05:45:28.993Z,999.23
2022-12-11T05:46:29.033Z,999.25
2022-12-11T05:47:28.967Z,999.18
2022-12-11T05:48:28.993Z,999.25
2022-12-11T05:49:30.978Z,999.27
2022-12-11T05:50:28.941Z,999.26
2022-12-11T05:51:28.924Z,999.32
2022-12-11T05:52:28.918Z,999.23
2022-12-11T05:53:28.915Z,999.24
2022-12-11T05:54:28.895Z,999.27
2022-12-11T05:55:33.914Z,999.20
2022-12-11T05:56:29.138Z,999.23
2022-12-11T05:57:28.859Z,999.21
2022-12-11T05:58:28.867Z,999.20
2022-12-11T05:59:28.837Z,999.14
2022-12-11T06:00:32.977Z,999.20
2022-12-11T06:01:29.824Z,999.13
2022-12-11T06:02:28.911Z,999.14
2022-12-11T06:03:28.810Z,999.16
2022-12-11T06:04:28.814Z,999.16
2022-12-11T06:05:28.776Z,999.18
2022-12-11T06:06:33.826Z,999.14
2022-12-11T06:07:28.754Z,999.17
2022-12-11T06:08:28.836Z,999.22
2022-12-11T06:09:28.728Z,999.16
2022-12-11T06:10:28.721Z,999.20
2022-12-11T06:11:28.712Z,999.17
2022-12-11T06:12:28.699Z,999.14
2022-12-11T06:13:28.696Z,999.15
2022-12-11T06:14:28.676Z,999.19
2022-12-11T06:15:28.677Z,999.18
2022-12-11T06:16:28.724Z,999.16
2022-12-11T06:17:33.669Z,999.16
2022-12-11T06:18:28.644Z,999.17
2022-12-11T06:19:32.007Z,999.10
2022-12-11T06:20:29.632Z,999.14
2022-12-11T06:21:28.608Z,999.14
2022-12-11T06:22:28.590Z,999.07
2022-12-11T06:23:28.595Z,999.06
2022-12-11T06:24:28.568Z,999.09
2022-12-11T06:25:28.561Z,999.10
2022-12-11T06:26:28.567Z,999.07
2022-12-11T06:27:28.535Z,999.00
2022-12-11T06:28:33.557Z,999.00
2022-12-11T06:29:28.523Z,998.92
2022-12-11T06:30:38.461Z,998.96
2022-12-11T06:31:29.526Z,998.95
2022-12-11T06:32:28.490Z,999.01
2022-12-11T06:33:28.490Z,998.91
2022-12-11T06:34:28.464Z,998.98
2022-12-11T06:35:28.446Z,998.96
2022-12-11T06:36:28.459Z,998.93
2022-12-11T06:37:28.427Z,998.95
2022-12-11T06:38:28.427Z,998.97
2022-12-11T06:39:33.427Z,998.98
2022-12-11T06:40:28.524Z,998.98
2022-12-11T06:41:28.379Z,998.97
2022-12-11T06:42:28.374Z,998.98
2022-12-11T06:43:28.372Z,998.97
2022-12-11T06:44:28.355Z,998.96
2022-12-11T06:45:28.398Z,999.03
2022-12-11T06:46:28.374Z,998.97
2022-12-11T06:47:28.317Z,998.98
2022-12-11T06:48:28.317Z,999.00
2022-12-11T06:49:28.296Z,998.97
2022-12-11T06:50:33.316Z,998.97
2022-12-11T06:51:28.276Z,998.93
2022-12-11T06:52:28.281Z,998.88
2022-12-11T06:53:28.262Z,998.92
2022-12-11T06:54:28.238Z,998.81
2022-12-11T06:55:28.236Z,998.95
2022-12-11T06:56:28.221Z,998.89
2022-12-11T06:57:28.209Z,998.89
2022-12-11T06:58:28.206Z,998.94
2022-12-11T06:59:28.189Z,998.92
2022-12-11T07:00:28.176Z,998.90
2022-12-11T07:01:33.192Z,998.95
2022-12-11T07:02:28.224Z,999.00
2022-12-11T07:03:28.159Z,998.91
2022-12-11T07:04:28.133Z,998.92
2022-12-11T07:05:28.137Z,998.89
2022-12-11T07:06:28.115Z,998.94
2022-12-11T07:07:28.101Z,998.94
2022-12-11T07:08:28.171Z,998.91
2022-12-11T07:09:28.081Z,998.91
2022-12-11T07:10:28.065Z,998.88
2022-12-11T07:11:28.056Z,998.90
2022-12-11T07:12:33.069Z,998.91
2022-12-11T07:13:28.045Z,998.89
2022-12-11T07:14:28.022Z,998.94
2022-12-11T07:15:28.013Z,998.92
2022-12-11T07:16:28.101Z,999.01
2022-12-11T07:17:27.991Z,999.01
2022-12-11T07:18:27.995Z,999.07
2022-12-11T07:19:27.982Z,999.02
2022-12-11T07:20:28.007Z,999.05
2022-12-11T07:21:27.956Z,999.04
2022-12-11T07:22:27.965Z,999.07
2022-12-11T07:23:32.979Z,999.04
2022-12-11T07:24:27.912Z,999.08
2022-12-11T07:25:27.909Z,999.11
2022-12-11T07:26:27.895Z,999.05
2022-12-11T07:27:27.912Z,999.05
2022-12-11T07:28:27.913Z,999.08
2022-12-11T07:29:27.861Z,999.15
2022-12-11T07:30:27.884Z,999.09
2022-12-11T07:31:27.870Z,999.11
2022-12-11T07:32:28.022Z,999.21
2022-12-11T07:33:27.837Z,999.15
2022-12-11T07:34:32.859Z,999.15
2022-12-11T07:35:27.794Z,999.17
2022-12-11T07:36:27.788Z,999.16
2022-12-11T07:37:27.775Z,999.18
2022-12-11T07:38:27.773Z,999.18
2022-12-11T07:39:27.806Z,999.20
2022-12-11T07:40:27.786Z,999.23
2022-12-11T07:41:27.736Z,999.18
2022-12-11T07:42:27.720Z,999.11
2022-12-11T07:43:27.728Z,999.14
2022-12-11T07:44:27.701Z,999.11
2022-12-11T07:45:32.725Z,999.17
2022-12-11T07:46:27.677Z,999.18
2022-12-11T07:47:27.669Z,999.16
2022-12-11T07:48:27.672Z,999.14
2022-12-11T07:49:27.647Z,999.23
2022-12-11T07:50:27.701Z,999.23
2022-12-11T07:51:27.642Z,999.29
2022-12-11T07:52:27.610Z,999.28
2022-12-11T07:53:27.605Z,999.23
2022-12-11T07:54:27.601Z,999.26
2022-12-11T07:55:27.604Z,999.34
2022-12-11T07:56:32.598Z,999.29
2022-12-11T07:57:27.556Z,999.42
2022-12-11T07:58:27.550Z,999.32
2022-12-11T07:59:27.549Z,999.41
2022-12-11T08:00:27.522Z,999.29
2022-12-11T08:01:27.635Z,999.35
2022-12-11T08:02:31.273Z,999.25
2022-12-11T08:03:28.499Z,999.33
2022-12-11T08:04:27.497Z,999.29
2022-12-11T08:05:27.473Z,999.28
2022-12-11T08:06:27.508Z,999.26
2022-12-11T08:07:32.470Z,999.28
2022-12-11T08:08:27.522Z,999.24
2022-12-11T08:09:27.443Z,999.27
2022-12-11T08:10:27.416Z,999.21
2022-12-11T08:11:27.428Z,999.23
2022-12-11T08:12:27.392Z,999.20
2022-12-11T08:13:27.386Z,999.19
2022-12-11T08:14:27.384Z,999.20
2022-12-11T08:15:27.363Z,999.26
2022-12-11T08:16:27.373Z,999.25
2022-12-11T08:17:30.251Z,999.24
2022-12-11T08:18:33.350Z,999.22
2022-12-11T08:19:27.344Z,999.26
2022-12-11T08:20:27.308Z,999.25
2022-12-11T08:21:27.308Z,999.30
2022-12-11T08:22:27.282Z,999.30
2022-12-11T08:23:27.274Z,999.30
2022-12-11T08:24:27.276Z,999.32
2022-12-11T08:25:27.251Z,999.28
2022-12-11T08:26:27.241Z,999.32
2022-12-11T08:27:27.249Z,999.26
2022-12-11T08:28:27.464Z,999.25
2022-12-11T08:29:32.246Z,999.27
2022-12-11T08:30:27.242Z,999.21
2022-12-11T08:31:27.189Z,999.26
2022-12-11T08:32:27.176Z,999.20
2022-12-11T08:33:27.170Z,999.19
2022-12-11T08:34:27.175Z,999.21
2022-12-11T08:35:27.147Z,999.20
2022-12-11T08:36:27.138Z,999.12
2022-12-11T08:37:27.127Z,999.17
2022-12-11T08:38:27.120Z,999.14
2022-12-11T08:39:27.111Z,999.22
2022-12-11T08:40:32.109Z,999.20
2022-12-11T08:41:27.078Z,999.19
2022-12-11T08:42:27.066Z,999.27
2022-12-11T08:43:27.080Z,999.26
2022-12-11T08:44:27.059Z,999.30
2022-12-11T08:45:27.036Z,999.31
2022-12-11T08:46:27.094Z,999.27
2022-12-11T08:47:27.013Z,999.36
2022-12-11T08:48:27.002Z,999.38
2022-12-11T08:49:32.700Z,999.34
2022-12-11T08:50:27.977Z,999.38
2022-12-11T08:51:31.993Z,999.33
2022-12-11T08:52:26.955Z,999.30
2022-12-11T08:53:26.988Z,999.30
2022-12-11T08:54:26.947Z,999.35
2022-12-11T08:55:26.928Z,999.29
2022-12-11T08:56:26.920Z,999.30
2022-12-11T08:57:26.909Z,999.28
2022-12-11T08:58:26.894Z,999.26
2022-12-11T08:59:26.910Z,999.27
2022-12-11T09:00:26.874Z,999.25
2022-12-11T09:01:27.050Z,999.31
2022-12-11T09:02:31.960Z,999.31
2022-12-11T09:03:26.898Z,999.31
2022-12-11T09:04:26.839Z,999.26
2022-12-11T09:05:26.826Z,999.26
2022-12-11T09:06:26.826Z,999.26
2022-12-11T09:07:26.800Z,999.22
2022-12-11T09:08:26.874Z,999.17
2022-12-11T09:09:26.793Z,999.25
2022-12-11T09:10:26.768Z,999.25
2022-12-11T09:11:26.761Z,999.26
2022-12-11T09:12:26.743Z,999.28
2022-12-11T09:13:31.755Z,999.24
2022-12-11T09:14:26.740Z,999.23
2022-12-11T09:15:26.729Z,999.21
2022-12-11T09:16:26.704Z,999.26
2022-12-11T09:17:26.686Z,999.23
2022-12-11T09:18:26.676Z,999.21
2022-12-11T09:19:32.027Z,999.26
2022-12-11T09:20:27.650Z,999.24
2022-12-11T09:21:26.643Z,999.25
2022-12-11T09:22:26.646Z,999.24
2022-12-11T09:23:26.627Z,999.21
2022-12-11T09:24:31.653Z,999.25
2022-12-11T09:25:26.614Z,999.23
2022-12-11T09:26:26.589Z,999.20
2022-12-11T09:27:26.581Z,999.21
2022-12-11T09:28:26.566Z,999.22
2022-12-11T09:29:26.578Z,999.26
2022-12-11T09:30:26.548Z,999.21
2022-12-11T09:31:26.554Z,999.19
2022-12-11T09:32:26.525Z,999.26
2022-12-11T09:33:26.516Z,999.24
2022-12-11T09:34:29.433Z,999.25
2022-12-11T09:35:31.717Z,999.21
2022-12-11T09:36:26.481Z,999.24
2022-12-11T09:37:26.476Z,999.30
2022-12-11T09:38:26.471Z,999.30
2022-12-11T09:39:26.467Z,999.28
2022-12-11T09:40:26.435Z,999.31
2022-12-11T09:41:26.433Z,999.30
2022-12-11T09:42:26.416Z,999.32
2022-12-11T09:43:26.404Z,999.36
2022-12-11T09:44:26.418Z,999.26
2022-12-11T09:45:26.384Z,999.26
2022-12-11T09:46:34.112Z,999.23
2022-12-11T09:47:26.408Z,999.23
2022-12-11T09:48:26.351Z,999.15
2022-12-11T09:49:26.357Z,999.16
2022-12-11T09:50:26.327Z,999.16
2022-12-11T09:51:26.320Z,999.18
2022-12-11T09:52:26.305Z,999.19
2022-12-11T09:53:30.990Z,999.12
2022-12-11T09:54:27.300Z,999.16
2022-12-11T09:55:26.274Z,999.06
2022-12-11T09:56:26.261Z,999.11
2022-12-11T09:57:31.277Z,999.11
2022-12-11T09:58:26.252Z,999.09
2022-12-11T09:59:26.229Z,999.11
2022-12-11T10:00:26.227Z,999.10
2022-12-11T10:01:26.267Z,999.14
2022-12-11T10:02:26.352Z,999.11
2022-12-11T10:03:26.191Z,999.16
2022-12-11T10:04:26.176Z,999.10
2022-12-11T10:05:26.177Z,999.09
2022-12-11T10:06:26.152Z,999.10
2022-12-11T10:07:26.143Z,999.05
2022-12-11T10:08:31.151Z,999.10
2022-12-11T10:09:26.128Z,999.07
2022-12-11T10:10:26.123Z,999.03
2022-12-11T10:11:26.111Z,999.01
2022-12-11T10:12:26.088Z,998.98
2022-12-11T10:13:26.098Z,999.01
2022-12-11T10:14:26.115Z,999.00
2022-12-11T10:15:26.092Z,998.99
2022-12-11T10:16:26.045Z,998.97
2022-12-11T10:17:26.043Z,999.02
2022-12-11T10:18:26.042Z,999.04
2022-12-11T10:19:31.072Z,999.02
2022-12-11T10:20:26.014Z,999.00
2022-12-11T10:21:25.993Z,999.13
2022-12-11T10:22:25.995Z,999.11
2022-12-11T10:23:25.999Z,999.06
2022-12-11T10:25:05.723Z,999.03
2022-12-11T10:25:27.327Z,999.10
2022-12-11T10:26:25.934Z,999.04
2022-12-11T10:27:25.929Z,999.03
2022-12-11T10:28:25.925Z,999.01
2022-12-11T10:29:25.905Z,999.05
2022-12-11T10:30:34.431Z,999.02
2022-12-11T10:31:25.947Z,999.00
2022-12-11T10:32:25.924Z,998.97
2022-12-11T10:33:25.866Z,998.96
2022-12-11T10:34:25.870Z,998.93
2022-12-11T10:35:25.847Z,999.00
2022-12-11T10:36:25.841Z,998.95
2022-12-11T10:37:25.818Z,998.97
2022-12-11T10:38:25.806Z,998.95
2022-12-11T10:39:25.797Z,998.98
2022-12-11T10:40:25.785Z,998.89
2022-12-11T10:41:30.810Z,998.89
2022-12-11T10:42:25.763Z,998.85
2022-12-11T10:43:25.751Z,998.79
2022-12-11T10:44:25.738Z,998.84
2022-12-11T10:45:25.729Z,998.80
2022-12-11T10:46:25.758Z,998.74
2022-12-11T10:47:25.732Z,998.71
2022-12-11T10:48:25.763Z,998.68
2022-12-11T10:49:25.695Z,998.67
2022-12-11T10:50:25.694Z,998.68
2022-12-11T10:51:25.682Z,998.64
2022-12-11T10:52:30.699Z,998.67
2022-12-11T10:53:25.646Z,998.74
2022-12-11T10:54:25.638Z,998.69
2022-12-11T10:55:25.619Z,998.68
2022-12-11T10:56:25.619Z,998.67
2022-12-11T10:57:25.601Z,998.64
2022-12-11T10:58:25.590Z,998.66
2022-12-11T10:59:25.582Z,998.61
2022-12-11T11:00:25.576Z,998.65
2022-12-11T11:01:25.609Z,998.62
2022-12-11T11:02:25.659Z,998.60
2022-12-11T11:03:30.558Z,998.63
2022-12-11T11:04:25.525Z,998.54
2022-12-11T11:05:25.541Z,998.55
2022-12-11T11:06:25.535Z,998.53
2022-12-11T11:07:25.488Z,998.54
2022-12-11T11:08:25.592Z,998.53
2022-12-11T11:09:25.479Z,998.54
2022-12-11T11:10:25.528Z,998.57
2022-12-11T11:11:25.447Z,998.54
2022-12-11T11:12:25.446Z,998.57
2022-12-11T11:13:25.425Z,998.54
2022-12-11T11:14:30.452Z,998.52
2022-12-11T11:15:25.421Z,998.43
2022-12-11T11:16:25.416Z,998.49
2022-12-11T11:17:26.870Z,998.42
2022-12-11T11:18:25.373Z,998.37
2022-12-11T11:19:25.362Z,998.41
2022-12-11T11:20:25.352Z,998.44
2022-12-11T11:21:25.359Z,998.41
2022-12-11T11:22:25.364Z,998.45
2022-12-11T11:23:25.319Z,998.45
2022-12-11T11:24:25.315Z,998.46
2022-12-11T11:25:30.343Z,998.42
2022-12-11T11:26:38.243Z,998.36
2022-12-11T11:27:26.280Z,998.41
2022-12-11T11:28:25.276Z,998.34
2022-12-11T11:29:25.251Z,998.39
2022-12-11T11:30:25.248Z,998.38
2022-12-11T11:31:25.286Z,998.34
2022-12-11T11:32:25.230Z,998.34
2022-12-11T11:33:25.206Z,998.34
2022-12-11T11:34:25.198Z,998.23
2022-12-11T11:35:25.187Z,998.28
2022-12-11T11:36:30.207Z,998.29
2022-12-11T11:37:25.171Z,998.29
2022-12-11T11:38:25.297Z,998.32
2022-12-11T11:39:25.142Z,998.34
2022-12-11T11:40:25.132Z,998.31
2022-12-11T11:41:25.123Z,998.30
2022-12-11T11:42:25.133Z,998.29
2022-12-11T11:43:25.111Z,998.29
2022-12-11T11:44:25.088Z,998.29
2022-12-11T11:45:25.075Z,998.31
2022-12-11T11:46:25.105Z,998.25
2022-12-11T11:47:30.086Z,998.31
2022-12-11T11:48:25.050Z,998.33
2022-12-11T11:49:25.037Z,998.32
2022-12-11T11:50:25.022Z,998.26
2022-12-11T11:51:25.022Z,998.25
2022-12-11T11:52:25.018Z,998.33
2022-12-11T11:53:24.996Z,998.28
2022-12-11T11:54:25.001Z,998.22
2022-12-11T11:55:24.974Z,998.22
2022-12-11T11:56:24.957Z,998.19
2022-12-11T11:57:24.956Z,998.18
2022-12-11T11:58:29.961Z,998.23
2022-12-11T11:59:24.925Z,998.20
2022-12-11T12:00:28.853Z,998.20
2022-12-11T12:01:25.910Z,998.21
2022-12-11T12:02:24.975Z,998.20
2022-12-11T12:03:24.880Z,998.13
2022-12-11T12:04:24.870Z,998.24
2022-12-11T12:05:24.874Z,998.26
2022-12-11T12:06:24.852Z,998.31
2022-12-11T12:07:24.856Z,998.22
2022-12-11T12:08:24.916Z,998.27
2022-12-11T12:09:29.922Z,998.26
2022-12-11T12:10:24.807Z,998.23
2022-12-11T12:11:24.799Z,998.26
2022-12-11T12:12:28.597Z,998.21
2022-12-11T12:13:48.700Z,998.23
2022-12-11T12:14:52.965Z,998.22
2022-12-11T12:15:25.758Z,998.25
2022-12-11T12:16:51.780Z,998.20
2022-12-11T12:17:25.814Z,998.26
2022-12-11T12:18:24.732Z,998.21
2022-12-11T12:19:24.705Z,998.19
2022-12-11T12:20:29.722Z,998.33
2022-12-11T12:21:24.701Z,998.28
2022-12-11T12:22:24.688Z,998.28
2022-12-11T12:23:24.671Z,998.28
2022-12-11T12:24:24.665Z,998.19
2022-12-11T12:25:24.662Z,998.23
2022-12-11T12:26:24.642Z,998.20
2022-12-11T12:27:51.126Z,998.26
2022-12-11T12:28:25.618Z,998.26
2022-12-11T12:29:24.602Z,998.31
2022-12-11T12:30:24.591Z,998.29
2022-12-11T12:31:29.634Z,998.24
2022-12-11T12:32:24.565Z,998.26
2022-12-11T12:33:24.569Z,998.24
2022-12-11T12:34:24.545Z,998.25
2022-12-11T12:35:24.531Z,998.23
2022-12-11T12:36:24.521Z,998.28
2022-12-11T12:37:24.527Z,998.25
2022-12-11T12:38:24.529Z,998.24
2022-12-11T12:39:24.487Z,998.24
2022-12-11T12:40:24.490Z,998.25
2022-12-11T12:41:24.502Z,998.20
2022-12-11T12:42:29.514Z,998.23
2022-12-11T12:43:24.454Z,998.19
2022-12-11T12:44:24.509Z,998.20
2022-12-11T12:45:24.495Z,998.17
2022-12-11T12:46:24.418Z,998.14
2022-12-11T12:47:24.400Z,998.13
2022-12-11T12:48:24.427Z,998.14
2022-12-11T12:49:24.379Z,998.14
2022-12-11T12:50:24.369Z,998.12
2022-12-11T12:51:24.367Z,998.11
2022-12-11T12:52:24.351Z,998.11
2022-12-11T12:53:29.365Z,998.09
2022-12-11T12:54:24.324Z,998.10
2022-12-11T12:55:24.323Z,998.10
2022-12-11T12:56:24.306Z,998.11
2022-12-11T12:57:24.323Z,998.04
2022-12-11T12:58:24.281Z,997.99
2022-12-11T12:59:24.279Z,998.02
2022-12-11T13:00:24.263Z,998.06
2022-12-11T13:01:24.317Z,997.96
2022-12-11T13:02:24.336Z,997.91
2022-12-11T13:03:24.229Z,997.88
2022-12-11T13:04:54.516Z,997.88
2022-12-11T13:05:25.205Z,997.92
2022-12-11T13:06:24.201Z,997.87
2022-12-11T13:07:24.186Z,997.92
2022-12-11T13:08:24.251Z,997.91
2022-12-11T13:09:24.181Z,997.86
2022-12-11T13:10:24.153Z,997.92
2022-12-11T13:11:24.157Z,997.85
2022-12-11T13:12:24.128Z,997.83
2022-12-11T13:13:24.156Z,997.86
2022-12-11T13:14:24.128Z,997.80
2022-12-11T13:15:29.129Z,997.83
2022-12-11T13:16:24.158Z,997.87
2022-12-11T13:17:24.079Z,997.89
2022-12-11T13:18:24.068Z,997.82
2022-12-11T13:19:24.059Z,997.87
2022-12-11T13:20:24.069Z,997.86
2022-12-11T13:21:24.036Z,997.85
2022-12-11T13:22:24.040Z,997.86
2022-12-11T13:23:24.009Z,997.87
2022-12-11T13:24:24.013Z,997.85
2022-12-11T13:25:24.030Z,997.90
2022-12-11T13:26:29.006Z,997.83
2022-12-11T13:27:23.966Z,997.84
2022-12-11T13:28:23.961Z,997.79
2022-12-11T13:29:29.834Z,997.88
2022-12-11T13:30:24.968Z,997.91
2022-12-11T13:31:23.968Z,997.87
2022-12-11T13:32:23.910Z,997.93
2022-12-11T13:33:23.914Z,997.95
2022-12-11T13:34:23.903Z,997.95
2022-12-11T13:35:23.888Z,997.99
2022-12-11T13:36:24.990Z,997.96
2022-12-11T13:37:28.880Z,997.97
2022-12-11T13:38:23.849Z,997.99
2022-12-11T13:39:23.840Z,998.02
2022-12-11T13:40:23.835Z,998.01
2022-12-11T13:41:23.814Z,998.00
2022-12-11T13:42:23.805Z,998.07
2022-12-11T13:43:23.793Z,998.10
2022-12-11T13:44:23.787Z,998.07
2022-12-11T13:45:23.798Z,998.04
2022-12-11T13:46:23.818Z,998.15
2022-12-11T13:47:23.751Z,998.14
2022-12-11T13:48:28.769Z,998.03
2022-12-11T13:49:23.724Z,998.07
2022-12-11T13:50:23.730Z,998.09
2022-12-11T13:51:23.702Z,998.16
2022-12-11T13:52:23.692Z,998.13
2022-12-11T13:53:23.690Z,998.12
2022-12-11T13:54:23.688Z,998.15
2022-12-11T13:55:23.684Z,998.09
2022-12-11T13:56:23.670Z,998.13
2022-12-11T13:57:23.651Z,998.15
2022-12-11T13:58:23.626Z,998.14
2022-12-11T13:59:28.641Z,998.12
2022-12-11T14:00:23.963Z,998.04
2022-12-11T14:01:23.685Z,998.09
2022-12-11T14:02:23.810Z,998.15
2022-12-11T14:03:23.589Z,998.16
2022-12-11T14:04:23.574Z,998.12
2022-12-11T14:05:23.551Z,998.15
2022-12-11T14:06:23.563Z,998.20
2022-12-11T14:07:23.604Z,998.19
2022-12-11T14:08:23.645Z,998.19
2022-12-11T14:09:23.617Z,998.22
2022-12-11T14:10:28.523Z,998.29
2022-12-11T14:11:23.502Z,998.16
2022-12-11T14:12:23.487Z,998.23
2022-12-11T14:13:23.461Z,998.23
2022-12-11T14:14:23.451Z,998.17
2022-12-11T14:15:23.444Z,998.24
2022-12-11T14:16:23.504Z,998.22
2022-12-11T14:17:23.430Z,998.20
2022-12-11T14:18:23.426Z,998.27
2022-12-11T14:19:23.400Z,998.20
2022-12-11T14:20:23.385Z,998.17
2022-12-11T14:21:28.421Z,998.24
2022-12-11T14:22:23.388Z,998.20
2022-12-11T14:23:23.358Z,998.22
2022-12-11T14:24:23.345Z,998.23
2022-12-11T14:25:23.331Z,998.27
2022-12-11T14:26:23.322Z,998.28
2022-12-11T14:27:23.324Z,998.32
2022-12-11T14:28:23.325Z,998.33
2022-12-11T14:29:23.289Z,998.28
2022-12-11T14:30:23.284Z,998.31
2022-12-11T14:31:23.326Z,998.30
2022-12-11T14:32:28.317Z,998.29
2022-12-11T14:33:23.260Z,998.36
2022-12-11T14:34:23.276Z,998.34
2022-12-11T14:35:23.229Z,998.32
2022-12-11T14:36:23.218Z,998.35
2022-12-11T14:37:23.210Z,998.32
2022-12-11T14:38:23.203Z,998.30
2022-12-11T14:39:23.181Z,998.30
2022-12-11T14:40:23.170Z,998.25
2022-12-11T14:41:23.167Z,998.28
2022-12-11T14:42:23.161Z,998.23
2022-12-11T14:43:28.158Z,998.33
2022-12-11T14:44:23.126Z,998.30
2022-12-11T14:45:23.116Z,998.38
2022-12-11T14:46:23.206Z,998.30
2022-12-11T14:47:23.122Z,998.29
2022-12-11T14:48:23.085Z,998.35
2022-12-11T14:49:23.075Z,998.31
2022-12-11T14:50:23.078Z,998.37
2022-12-11T14:51:23.056Z,998.38
2022-12-11T14:52:23.049Z,998.35
2022-12-11T14:53:23.028Z,998.38
2022-12-11T14:54:28.039Z,998.38
2022-12-11T14:55:23.006Z,998.37
2022-12-11T14:56:22.996Z,998.42
2022-12-11T14:57:23.007Z,998.36
2022-12-11T14:58:22.974Z,998.41
2022-12-11T14:59:26.982Z,998.47
2022-12-11T15:00:23.953Z,998.38
2022-12-11T15:01:23.035Z,998.44
2022-12-11T15:02:23.150Z,998.40
2022-12-11T15:03:22.921Z,998.45
2022-12-11T15:04:22.909Z,998.43
2022-12-11T15:05:27.944Z,998.49
2022-12-11T15:06:22.899Z,998.45
2022-12-11T15:07:22.885Z,998.39
2022-12-11T15:08:22.941Z,998.38
2022-12-11T15:09:22.853Z,998.48
2022-12-11T15:10:22.842Z,998.43
2022-12-11T15:11:22.833Z,998.43
2022-12-11T15:12:22.831Z,998.50
2022-12-11T15:13:22.819Z,998.47
2022-12-11T15:14:22.800Z,998.48
2022-12-11T15:15:22.786Z,998.46
2022-12-11T15:16:27.831Z,998.46
2022-12-11T15:17:22.789Z,998.48
2022-12-11T15:18:22.790Z,998.52
2022-12-11T15:19:22.743Z,998.46
2022-12-11T15:20:22.743Z,998.44
2022-12-11T15:21:22.741Z,998.53
2022-12-11T15:22:22.729Z,998.50
2022-12-11T15:23:23.590Z,998.48
2022-12-11T15:24:22.695Z,998.56
2022-12-11T15:25:22.687Z,998.52
2022-12-11T15:26:22.674Z,998.54
2022-12-11T15:27:27.691Z,998.50
2022-12-11T15:28:22.647Z,998.52
2022-12-11T15:29:22.646Z,998.53
2022-12-11T15:30:22.624Z,998.48
2022-12-11T15:31:22.616Z,998.63
2022-12-11T15:32:22.601Z,998.55
2022-12-11T15:33:22.607Z,998.58
2022-12-11T15:34:22.579Z,998.57
2022-12-11T15:35:22.584Z,998.54
2022-12-11T15:36:22.561Z,998.59
2022-12-11T15:37:22.571Z,998.55
2022-12-11T15:38:27.571Z,998.59
2022-12-11T15:39:22.548Z,998.49
2022-12-11T15:40:22.526Z,998.58
2022-12-11T15:41:22.509Z,998.60
2022-12-11T15:42:22.496Z,998.55
2022-12-11T15:43:22.495Z,998.51
2022-12-11T15:44:22.488Z,998.58
2022-12-11T15:45:22.463Z,998.61
2022-12-11T15:46:22.551Z,998.58
2022-12-11T15:47:22.441Z,998.52
2022-12-11T15:48:22.447Z,998.54
2022-12-11T15:49:27.441Z,998.59
2022-12-11T15:50:22.418Z,998.57
2022-12-11T15:51:22.401Z,998.60
2022-12-11T15:52:22.388Z,998.54
2022-12-11T15:53:22.408Z,998.61
2022-12-11T15:54:22.370Z,998.50
2022-12-11T15:55:22.352Z,998.62
2022-12-11T15:56:22.344Z,998.60
2022-12-11T15:57:22.342Z,998.58
2022-12-11T15:58:23.305Z,998.61
2022-12-11T15:59:22.324Z,998.62
2022-12-11T16:00:27.324Z,998.64
2022-12-11T16:01:22.339Z,998.64
2022-12-11T16:02:22.315Z,998.64
2022-12-11T16:03:22.282Z,998.58
2022-12-11T16:04:22.279Z,998.68
2022-12-11T16:05:22.245Z,998.62
2022-12-11T16:06:22.231Z,998.62
2022-12-11T16:07:22.232Z,998.67
2022-12-11T16:08:22.371Z,998.62
2022-12-11T16:09:22.241Z,998.63
2022-12-11T16:10:22.213Z,998.57
2022-12-11T16:11:27.211Z,998.58
2022-12-11T16:12:22.206Z,998.54
2022-12-11T16:13:22.170Z,998.54
2022-12-11T16:14:22.176Z,998.55
2022-12-11T16:15:24.052Z,998.52
2022-12-11T16:16:22.195Z,998.57
2022-12-11T16:17:22.115Z,998.58
2022-12-11T16:18:22.103Z,998.56
2022-12-11T16:19:22.141Z,998.63
2022-12-11T16:20:22.082Z,998.60
2022-12-11T16:21:22.072Z,998.61
2022-12-11T16:22:27.084Z,998.64
2022-12-11T16:23:22.076Z,998.63
2022-12-11T16:24:22.042Z,998.61
2022-12-11T16:25:22.082Z,998.64
2022-12-11T16:26:22.030Z,998.57
2022-12-11T16:27:23.347Z,998.54
2022-12-11T16:28:22.002Z,998.61
2022-12-11T16:29:21.985Z,998.58
2022-12-11T16:30:21.987Z,998.61
2022-12-11T16:31:22.049Z,998.63
2022-12-11T16:32:21.948Z,998.56
2022-12-11T16:33:26.967Z,998.55
2022-12-11T16:34:21.933Z,998.52
2022-12-11T16:35:21.940Z,998.53
2022-12-11T16:36:21.907Z,998.50
2022-12-11T16:37:21.902Z,998.56
2022-12-11T16:38:21.887Z,998.53
2022-12-11T16:39:21.914Z,998.53
2022-12-11T16:40:21.922Z,998.48
2022-12-11T16:41:21.883Z,998.47
2022-12-11T16:42:21.841Z,998.46
2022-12-11T16:43:21.840Z,998.43
2022-12-11T16:44:26.867Z,998.39
2022-12-11T16:45:21.824Z,998.44
2022-12-11T16:46:21.849Z,998.44
2022-12-11T16:47:21.845Z,998.40
2022-12-11T16:48:21.773Z,998.39
2022-12-11T16:49:21.765Z,998.37
2022-12-11T16:50:21.757Z,998.42
2022-12-11T16:51:21.840Z,998.43
2022-12-11T16:52:22.450Z,998.34
2022-12-11T16:53:21.723Z,998.40
2022-12-11T16:54:21.715Z,998.43
2022-12-11T16:55:26.745Z,998.39
2022-12-11T16:56:21.700Z,998.44
2022-12-11T16:57:21.681Z,998.49
2022-12-11T16:58:21.708Z,998.54
2022-12-11T16:59:21.657Z,998.51
2022-12-11T17:00:21.648Z,998.56
2022-12-11T17:01:21.779Z,998.51
2022-12-11T17:02:21.681Z,998.53
2022-12-11T17:03:21.615Z,998.53
2022-12-11T17:04:21.602Z,998.52
2022-12-11T17:05:21.593Z,998.58
2022-12-11T17:06:26.614Z,998.41
2022-12-11T17:07:21.590Z,998.46
2022-12-11T17:08:21.625Z,998.45
2022-12-11T17:09:21.556Z,998.45
2022-12-11T17:10:21.539Z,998.40
2022-12-11T17:11:21.569Z,998.40
2022-12-11T17:12:21.517Z,998.47
2022-12-11T17:13:21.512Z,998.46
2022-12-11T17:14:21.517Z,998.41
2022-12-11T17:15:21.483Z,998.48
2022-12-11T17:16:21.524Z,998.40
2022-12-11T17:17:26.482Z,998.42
2022-12-11T17:18:21.452Z,998.43
2022-12-11T17:19:21.498Z,998.38
2022-12-11T17:20:21.441Z,998.42
2022-12-11T17:21:21.420Z,998.44
2022-12-11T17:22:21.426Z,998.40
2022-12-11T17:23:21.393Z,998.37
2022-12-11T17:24:21.384Z,998.42
2022-12-11T17:25:21.378Z,998.47
2022-12-11T17:26:21.366Z,998.45
2022-12-11T17:27:21.364Z,998.45
2022-12-11T17:28:26.366Z,998.46